createdAt,value
2023-07-02T00:00:58.911Z,11.63
2023-07-02T00:06:02.340Z,13.90
2023-07-02T00:11:07.337Z,13.65
2023-07-02T00:16:11.049Z,13.10
2023-07-02T00:21:14.826Z,13.90
2023-07-02T00:26:19.580Z,15.35
2023-07-02T00:31:23.454Z,17.98
2023-07-02T00:36:26.902Z,13.25
2023-07-02T00:41:32.936Z,13.57
2023-07-02T00:46:36.416Z,17.45
2023-07-02T00:51:39.902Z,17.75
2023-07-02T00:56:47.150Z,15.95
2023-07-02T01:01:52.308Z,15.38
2023-07-02T01:06:58.672Z,18.52
2023-07-02T01:12:09.469Z,15.90
2023-07-02T01:17:13.424Z,16.83
2023-07-02T01:22:18.342Z,16.45
2023-07-02T01:27:23.027Z,15.93
2023-07-02T01:32:26.661Z,17.13
2023-07-02T01:37:38.676Z,18.35
2023-07-02T01:42:43.294Z,16.98
2023-07-02T01:47:46.799Z,17.17
2023-07-02T01:52:51.667Z,19.63
2023-07-02T01:57:55.042Z,20.23
2023-07-02T02:02:58.537Z,21.02
2023-07-02T02:08:03.434Z,18.85
2023-07-02T02:13:06.857Z,18.35
2023-07-02T02:18:10.289Z,18.15
2023-07-02T02:23:15.042Z,18.40
2023-07-02T02:28:18.444Z,19.73
2023-07-02T02:33:24.080Z,20.95
2023-07-02T02:38:29.144Z,20.15
2023-07-02T02:43:32.712Z,20.40
2023-07-02T02:48:36.985Z,24.55
2023-07-02T02:53:41.817Z,22.15
2023-07-02T02:58:46.882Z,35.63
2023-07-02T03:03:50.330Z,37.25
2023-07-02T03:08:55.163Z,36.10
2023-07-02T03:13:58.635Z,37.05
2023-07-02T03:19:02.116Z,37.35
2023-07-02T03:24:08.350Z,37.00
2023-07-02T03:29:12.734Z,40.58
2023-07-02T03:34:16.169Z,41.15
2023-07-02T03:39:21.097Z,41.13
2023-07-02T03:44:24.536Z,39.47
2023-07-02T03:49:28.215Z,40.47
2023-07-02T03:54:32.993Z,39.63
2023-07-02T03:59:37.109Z,40.40
2023-07-02T04:04:40.700Z,39.55
2023-07-02T04:09:45.540Z,44.95
2023-07-02T04:14:49.006Z,40.35
2023-07-02T04:19:55.961Z,44.25
2023-07-02T04:25:02.843Z,42.55
2023-07-02T04:30:11.374Z,42.85
2023-07-02T04:35:14.844Z,45.63
2023-07-02T04:40:19.816Z,39.13
2023-07-02T04:45:23.249Z,44.25
2023-07-02T04:50:26.853Z,46.72
2023-07-02T04:55:31.681Z,41.50
2023-07-02T05:00:35.147Z,49.78
2023-07-02T05:05:38.544Z,39.83
2023-07-02T05:10:43.307Z,44.03
2023-07-02T05:15:47.264Z,42.90
2023-07-02T05:20:50.911Z,42.80
2023-07-02T05:25:55.816Z,43.38
2023-07-02T05:30:59.247Z,40.10
2023-07-02T05:36:02.723Z,41.35
2023-07-02T05:41:07.535Z,41.72
2023-07-02T05:46:10.944Z,40.78
2023-07-02T05:51:14.408Z,43.25
2023-07-02T05:56:19.801Z,43.70
2023-07-02T06:01:23.214Z,44.83
2023-07-02T06:06:26.634Z,42.65
2023-07-02T06:11:31.441Z,41.78
2023-07-02T06:16:35.508Z,42.90
2023-07-02T06:21:39.201Z,39.67
2023-07-02T06:26:44.040Z,47.70
2023-07-02T06:31:47.658Z,41.15
2023-07-02T06:36:51.139Z,37.08
2023-07-02T06:41:55.912Z,38.35
2023-07-02T06:47:05.996Z,36.00
2023-07-02T06:52:09.611Z,37.28
2023-07-02T06:57:15.477Z,37.70
2023-07-02T07:02:19.006Z,36.05
2023-07-02T07:07:22.527Z,36.15
2023-07-02T07:12:27.313Z,32.20
2023-07-02T07:17:30.822Z,36.10
2023-07-02T07:22:35.179Z,34.65
2023-07-02T07:27:40.031Z,39.75
2023-07-02T07:32:43.511Z,34.20
2023-07-02T07:37:47.454Z,38.90
2023-07-02T07:42:52.268Z,36.55
2023-07-02T07:47:55.798Z,38.97
2023-07-02T07:52:59.341Z,41.38
2023-07-02T07:58:04.112Z,40.15
2023-07-02T08:03:07.652Z,38.70
2023-07-02T08:08:11.111Z,34.33
2023-07-02T08:13:15.880Z,35.17
2023-07-02T08:18:19.348Z,33.15
2023-07-02T08:23:22.877Z,32.10
2023-07-02T08:28:27.703Z,28.75
2023-07-02T08:33:31.097Z,28.95
2023-07-02T08:38:34.537Z,30.20
2023-07-02T08:43:39.972Z,27.77
2023-07-02T08:48:43.580Z,31.75
2023-07-02T08:53:47.026Z,28.55
2023-07-02T08:58:51.993Z,27.42
2023-07-02T09:04:01.771Z,29.70
2023-07-02T09:09:08.713Z,28.30
2023-07-02T09:14:13.470Z,24.97
2023-07-02T09:19:18.789Z,26.90
2023-07-02T09:24:24.852Z,23.98
2023-07-02T09:29:33.285Z,30.40
2023-07-02T09:34:41.749Z,28.58
2023-07-02T09:39:45.869Z,30.08
2023-07-02T09:44:54.573Z,31.30
2023-07-02T09:50:06.676Z,29.70
2023-07-02T09:55:12.217Z,25.98
2023-07-02T10:00:18.810Z,27.63
2023-07-02T10:05:30.839Z,27.03
2023-07-02T10:10:34.941Z,26.98
2023-07-02T10:15:41.063Z,25.20
2023-07-02T10:20:44.773Z,23.83
2023-07-02T10:25:48.182Z,28.42
2023-07-02T10:30:54.458Z,24.27
2023-07-02T10:35:58.142Z,25.83
2023-07-02T10:41:02.554Z,28.85
2023-07-02T10:46:07.336Z,26.15
2023-07-02T10:51:14.688Z,23.95
2023-07-02T10:56:21.179Z,22.25
2023-07-02T11:01:28.063Z,24.23
2023-07-02T11:06:33.444Z,21.73
2023-07-02T11:11:36.916Z,23.83
2023-07-02T11:16:41.914Z,23.13
2023-07-02T11:21:55.120Z,25.33
2023-07-02T11:26:59.329Z,22.55
2023-07-02T11:32:12.439Z,24.80
2023-07-02T11:37:15.808Z,24.17
2023-07-02T11:42:19.226Z,20.90
2023-07-02T11:47:23.996Z,26.10
2023-07-02T11:52:27.493Z,23.80
2023-07-02T11:57:30.885Z,22.80
2023-07-02T12:02:35.748Z,25.02
2023-07-02T12:07:39.153Z,22.90
2023-07-02T12:12:42.577Z,21.95
2023-07-02T12:17:47.403Z,22.65
2023-07-02T12:22:50.839Z,26.50
2023-07-02T12:27:54.490Z,21.63
2023-07-02T12:32:59.367Z,24.73
2023-07-02T12:38:04.720Z,24.23
2023-07-02T12:43:08.149Z,24.73
2023-07-02T12:48:13.066Z,23.23
2023-07-02T12:53:16.610Z,24.58
2023-07-02T12:58:20.174Z,22.77
2023-07-02T13:03:26.244Z,21.75
2023-07-02T13:08:29.890Z,22.05
2023-07-02T13:13:33.341Z,23.63
2023-07-02T13:18:38.103Z,23.63
2023-07-02T13:23:41.520Z,21.45
2023-07-02T13:28:47.644Z,22.10
2023-07-02T13:33:52.464Z,21.48
2023-07-02T13:38:55.876Z,24.08
2023-07-02T13:43:59.365Z,22.85
2023-07-02T13:49:04.115Z,20.63
2023-07-02T13:54:07.562Z,22.95
2023-07-02T13:59:12.425Z,20.75
2023-07-02T14:04:18.676Z,20.42
2023-07-02T14:09:22.682Z,19.83
2023-07-02T14:14:27.472Z,20.95
2023-07-02T14:19:30.889Z,21.98
2023-07-02T14:24:35.871Z,23.92
2023-07-02T14:29:40.661Z,24.02
2023-07-02T14:34:44.376Z,22.48
2023-07-02T14:40:01.336Z,20.13
2023-07-02T14:45:11.993Z,19.45
2023-07-02T14:50:17.382Z,19.40
2023-07-02T14:55:22.488Z,20.05
2023-07-02T15:00:27.267Z,20.40
2023-07-02T15:05:30.947Z,20.35
2023-07-02T15:10:34.395Z,21.23
2023-07-02T15:15:41.463Z,20.48
2023-07-02T15:20:46.523Z,18.35
2023-07-02T15:25:53.722Z,17.80
2023-07-02T15:31:03.520Z,19.20
2023-07-02T15:36:10.309Z,22.17
2023-07-02T15:41:16.968Z,18.47
2023-07-02T15:46:22.261Z,20.23
2023-07-02T15:51:26.464Z,23.08
2023-07-02T15:56:33.344Z,20.77
2023-07-02T16:01:40.202Z,20.17
2023-07-02T16:06:43.790Z,20.23
2023-07-02T16:11:47.313Z,23.48
2023-07-02T16:16:55.323Z,20.50
2023-07-02T16:21:59.097Z,18.33
2023-07-02T16:27:03.911Z,20.15
2023-07-02T16:32:14.316Z,20.83
2023-07-02T16:37:18.065Z,19.05
2023-07-02T16:42:22.065Z,15.63
2023-07-02T16:47:27.021Z,19.35
2023-07-02T16:52:30.923Z,19.80
2023-07-02T16:57:34.356Z,19.48
2023-07-02T17:02:39.269Z,17.20
2023-07-02T17:07:42.778Z,23.52
2023-07-02T17:12:46.252Z,18.67
2023-07-02T17:17:52.655Z,18.45
2023-07-02T17:22:56.163Z,18.27
2023-07-02T17:27:59.668Z,20.77
2023-07-02T17:33:04.812Z,58.75
2023-07-02T17:38:08.360Z,112.90
2023-07-02T17:43:11.856Z,116.07
2023-07-02T17:48:16.670Z,73.63
2023-07-02T17:53:21.293Z,57.60
2023-07-02T17:58:25.149Z,35.88
2023-07-02T18:03:30.068Z,32.60
2023-07-02T18:08:33.701Z,22.33
2023-07-02T18:13:37.089Z,18.55
2023-07-02T18:18:41.876Z,16.15
2023-07-02T18:23:45.324Z,16.70
2023-07-02T18:28:48.758Z,14.52
2023-07-02T18:33:53.592Z,14.75
2023-07-02T18:38:57.202Z,13.25
2023-07-02T18:44:02.195Z,14.65
2023-07-02T18:49:07.187Z,14.80
2023-07-02T18:54:10.657Z,11.68
2023-07-02T18:59:14.103Z,12.30
2023-07-02T19:04:18.960Z,12.68
2023-07-02T19:09:22.549Z,12.23
2023-07-02T19:14:27.204Z,11.75
2023-07-02T19:19:32.033Z,12.85
2023-07-02T19:24:35.984Z,19.38
2023-07-02T19:29:39.785Z,14.10
2023-07-02T19:34:48.426Z,13.95
2023-07-02T19:39:52.217Z,13.40
2023-07-02T19:44:56.183Z,13.77
2023-07-02T19:50:02.852Z,11.40
2023-07-02T19:55:11.833Z,10.70
2023-07-02T20:00:16.443Z,16.40
2023-07-02T20:05:21.817Z,12.45
2023-07-02T20:10:25.426Z,12.02
2023-07-02T20:15:28.925Z,12.27
2023-07-02T20:20:34.269Z,11.38
2023-07-02T20:25:50.096Z,15.25
2023-07-02T20:31:05.669Z,12.48
2023-07-02T20:36:16.080Z,11.18
2023-07-02T20:41:19.474Z,13.93
2023-07-02T20:46:24.471Z,11.18
2023-07-02T20:51:31.760Z,11.88
2023-07-02T20:56:35.212Z,12.02
2023-07-02T21:01:38.912Z,11.05
2023-07-02T21:06:43.796Z,10.05
2023-07-02T21:11:49.883Z,9.77
2023-07-02T21:16:53.357Z,13.63
2023-07-02T21:21:58.132Z,10.00
2023-07-02T21:27:01.564Z,10.18
2023-07-02T21:32:05.744Z,10.57
2023-07-02T21:37:10.860Z,7.95
2023-07-02T21:42:14.253Z,12.13
2023-07-02T21:47:17.667Z,10.52
2023-07-02T21:52:22.426Z,8.82
2023-07-02T21:57:29.150Z,10.32
2023-07-02T22:02:32.637Z,8.33
2023-07-02T22:07:37.635Z,8.85
2023-07-02T22:12:41.054Z,8.20
2023-07-02T22:17:44.625Z,10.40
2023-07-02T22:22:50.699Z,8.93
2023-07-02T22:27:57.066Z,9.73
2023-07-02T22:33:00.608Z,10.15
2023-07-02T22:38:05.455Z,12.48
2023-07-02T22:43:08.892Z,10.70
2023-07-02T22:48:12.299Z,8.57
2023-07-02T22:53:17.529Z,11.75
2023-07-02T22:58:20.936Z,8.23
2023-07-02T23:03:24.561Z,9.63
2023-07-02T23:08:29.958Z,9.23
2023-07-02T23:13:33.400Z,9.88
2023-07-02T23:18:36.786Z,9.30
2023-07-02T23:23:43.374Z,8.85
2023-07-02T23:28:53.943Z,6.87
2023-07-02T23:33:57.514Z,7.82
2023-07-02T23:39:02.256Z,12.00
2023-07-02T23:44:06.647Z,9.80
2023-07-02T23:49:10.049Z,7.28
2023-07-02T23:54:14.837Z,6.93
2023-07-02T23:59:18.229Z,9.85
